sensor_id;sensor_type;location;lat;lon;timestamp;P1;durP1;ratioP1;P2;durP2;ratioP2
32321;SDS011;61553;48.994;8.940;2023-10-19T00:00:45;30.13;;;22.13;;
32321;SDS011;61553;48.994;8.940;2023-10-19T00:03:14;31.80;;;20.83;;
32321;SDS011;61553;48.994;8.940;2023-10-19T00:05:41;33.85;;;22.20;;
32321;SDS011;61553;48.994;8.940;2023-10-19T00:08:07;30.65;;;20.95;;
32321;SDS011;61553;48.994;8.940;2023-10-19T00:10:47;32.97;;;21.02;;
32321;SDS011;61553;48.994;8.940;2023-10-19T00:13:35;29.50;;;20.02;;
32321;SDS011;61553;48.994;8.940;2023-10-19T00:16:03;29.30;;;19.80;;
32321;SDS011;61553;48.994;8.940;2023-10-19T00:18:41;29.05;;;19.58;;
32321;SDS011;61553;48.994;8.940;2023-10-19T00:21:08;31.20;;;20.15;;
32321;SDS011;61553;48.994;8.940;2023-10-19T00:23:45;32.08;;;20.83;;
32321;SDS011;61553;48.994;8.940;2023-10-19T00:26:14;30.48;;;20.00;;
32321;SDS011;61553;48.994;8.940;2023-10-19T00:28:44;30.40;;;21.08;;
32321;SDS011;61553;48.994;8.940;2023-10-19T00:31:12;31.52;;;21.45;;
32321;SDS011;61553;48.994;8.940;2023-10-19T00:33:38;29.08;;;21.00;;
32321;SDS011;61553;48.994;8.940;2023-10-19T00:36:06;33.85;;;21.30;;
32321;SDS011;61553;48.994;8.940;2023-10-19T00:38:33;30.40;;;21.08;;
32321;SDS011;61553;48.994;8.940;2023-10-19T00:40:59;31.70;;;20.60;;
32321;SDS011;61553;48.994;8.940;2023-10-19T00:43:31;31.23;;;21.45;;
32321;SDS011;61553;48.994;8.940;2023-10-19T00:46:13;29.98;;;20.80;;
32321;SDS011;61553;48.994;8.940;2023-10-19T00:48:44;30.73;;;20.75;;
32321;SDS011;61553;48.994;8.940;2023-10-19T00:51:14;28.75;;;20.13;;
32321;SDS011;61553;48.994;8.940;2023-10-19T00:54:02;32.20;;;21.35;;
32321;SDS011;61553;48.994;8.940;2023-10-19T00:56:36;37.47;;;22.13;;
32321;SDS011;61553;48.994;8.940;2023-10-19T00:59:06;31.50;;;20.35;;
32321;SDS011;61553;48.994;8.940;2023-10-19T01:01:44;30.05;;;20.08;;
32321;SDS011;61553;48.994;8.940;2023-10-19T01:04:13;30.88;;;19.77;;
32321;SDS011;61553;48.994;8.940;2023-10-19T01:06:40;31.73;;;21.13;;
32321;SDS011;61553;48.994;8.940;2023-10-19T01:09:23;26.70;;;19.67;;
32321;SDS011;61553;48.994;8.940;2023-10-19T01:11:52;25.08;;;18.83;;
32321;SDS011;61553;48.994;8.940;2023-10-19T01:14:21;28.52;;;18.90;;
32321;SDS011;61553;48.994;8.940;2023-10-19T01:16:48;27.08;;;18.83;;
32321;SDS011;61553;48.994;8.940;2023-10-19T01:19:21;27.20;;;17.60;;
32321;SDS011;61553;48.994;8.940;2023-10-19T01:21:48;24.77;;;18.17;;
32321;SDS011;61553;48.994;8.940;2023-10-19T01:24:20;24.52;;;17.85;;
32321;SDS011;61553;48.994;8.940;2023-10-19T01:27:04;23.90;;;17.30;;
32321;SDS011;61553;48.994;8.940;2023-10-19T01:29:33;26.98;;;17.95;;
32321;SDS011;61553;48.994;8.940;2023-10-19T01:32:00;28.05;;;17.48;;
32321;SDS011;61553;48.994;8.940;2023-10-19T01:34:32;27.98;;;17.50;;
32321;SDS011;61553;48.994;8.940;2023-10-19T01:37:02;24.85;;;17.73;;
32321;SDS011;61553;48.994;8.940;2023-10-19T01:39:32;23.63;;;17.02;;
32321;SDS011;61553;48.994;8.940;2023-10-19T01:42:00;26.38;;;18.75;;
32321;SDS011;61553;48.994;8.940;2023-10-19T01:44:29;24.55;;;17.90;;
32321;SDS011;61553;48.994;8.940;2023-10-19T01:46:54;24.75;;;17.35;;
32321;SDS011;61553;48.994;8.940;2023-10-19T01:49:20;25.45;;;17.52;;
32321;SDS011;61553;48.994;8.940;2023-10-19T01:51:55;25.45;;;17.52;;
32321;SDS011;61553;48.994;8.940;2023-10-19T01:54:22;24.98;;;17.13;;
32321;SDS011;61553;48.994;8.940;2023-10-19T01:56:53;23.38;;;16.83;;
32321;SDS011;61553;48.994;8.940;2023-10-19T01:59:22;24.17;;;17.13;;
32321;SDS011;61553;48.994;8.940;2023-10-19T02:01:56;23.85;;;17.20;;
32321;SDS011;61553;48.994;8.940;2023-10-19T02:04:22;29.08;;;18.08;;
32321;SDS011;61553;48.994;8.940;2023-10-19T02:06:48;25.85;;;18.80;;
32321;SDS011;61553;48.994;8.940;2023-10-19T02:09:17;28.80;;;18.35;;
32321;SDS011;61553;48.994;8.940;2023-10-19T02:11:46;26.20;;;17.75;;
32321;SDS011;61553;48.994;8.940;2023-10-19T02:14:14;27.38;;;18.75;;
32321;SDS011;61553;48.994;8.940;2023-10-19T02:16:44;28.33;;;18.85;;
32321;SDS011;61553;48.994;8.940;2023-10-19T02:19:18;30.10;;;19.73;;
32321;SDS011;61553;48.994;8.940;2023-10-19T02:21:51;30.25;;;20.02;;
32321;SDS011;61553;48.994;8.940;2023-10-19T02:24:21;23.88;;;16.83;;
32321;SDS011;61553;48.994;8.940;2023-10-19T02:26:48;25.90;;;18.45;;
32321;SDS011;61553;48.994;8.940;2023-10-19T02:29:16;25.48;;;18.73;;
32321;SDS011;61553;48.994;8.940;2023-10-19T02:31:43;25.08;;;18.55;;
32321;SDS011;61553;48.994;8.940;2023-10-19T02:34:10;23.48;;;17.08;;
32321;SDS011;61553;48.994;8.940;2023-10-19T02:36:37;29.13;;;18.17;;
32321;SDS011;61553;48.994;8.940;2023-10-19T02:39:05;28.70;;;19.80;;
32321;SDS011;61553;48.994;8.940;2023-10-19T02:41:34;27.05;;;17.27;;
32321;SDS011;61553;48.994;8.940;2023-10-19T02:44:02;27.90;;;19.65;;
32321;SDS011;61553;48.994;8.940;2023-10-19T02:46:34;21.48;;;17.13;;
32321;SDS011;61553;48.994;8.940;2023-10-19T02:51:36;24.63;;;17.85;;
32321;SDS011;61553;48.994;8.940;2023-10-19T02:54:18;27.67;;;18.33;;
32321;SDS011;61553;48.994;8.940;2023-10-19T02:56:50;27.40;;;18.65;;
32321;SDS011;61553;48.994;8.940;2023-10-19T02:59:22;29.65;;;20.35;;
32321;SDS011;61553;48.994;8.940;2023-10-19T03:01:52;28.63;;;20.27;;
32321;SDS011;61553;48.994;8.940;2023-10-19T03:04:48;28.08;;;18.90;;
32321;SDS011;61553;48.994;8.940;2023-10-19T03:07:14;31.63;;;21.30;;
32321;SDS011;61553;48.994;8.940;2023-10-19T03:09:40;29.48;;;19.67;;
32321;SDS011;61553;48.994;8.940;2023-10-19T03:12:13;27.48;;;18.88;;
32321;SDS011;61553;48.994;8.940;2023-10-19T03:14:39;26.45;;;19.45;;
32321;SDS011;61553;48.994;8.940;2023-10-19T03:17:06;24.73;;;18.00;;
32321;SDS011;61553;48.994;8.940;2023-10-19T03:19:34;23.67;;;17.85;;
32321;SDS011;61553;48.994;8.940;2023-10-19T03:22:03;29.02;;;19.27;;
32321;SDS011;61553;48.994;8.940;2023-10-19T03:24:31;28.92;;;18.85;;
32321;SDS011;61553;48.994;8.940;2023-10-19T03:27:08;33.00;;;20.75;;
32321;SDS011;61553;48.994;8.940;2023-10-19T03:29:43;31.88;;;21.00;;
32321;SDS011;61553;48.994;8.940;2023-10-19T03:32:14;29.25;;;19.10;;
32321;SDS011;61553;48.994;8.940;2023-10-19T03:34:47;28.77;;;19.50;;
32321;SDS011;61553;48.994;8.940;2023-10-19T03:37:14;28.15;;;19.40;;
32321;SDS011;61553;48.994;8.940;2023-10-19T03:39:40;31.13;;;19.98;;
32321;SDS011;61553;48.994;8.940;2023-10-19T03:42:06;32.72;;;20.17;;
32321;SDS011;61553;48.994;8.940;2023-10-19T03:44:38;30.20;;;19.92;;
32321;SDS011;61553;48.994;8.940;2023-10-19T03:47:13;29.25;;;19.48;;
32321;SDS011;61553;48.994;8.940;2023-10-19T03:49:44;32.80;;;21.80;;
32321;SDS011;61553;48.994;8.940;2023-10-19T03:52:11;32.15;;;21.90;;
32321;SDS011;61553;48.994;8.940;2023-10-19T03:54:38;34.88;;;20.25;;
32321;SDS011;61553;48.994;8.940;2023-10-19T03:57:07;30.58;;;20.60;;
32321;SDS011;61553;48.994;8.940;2023-10-19T03:59:40;28.65;;;20.58;;
32321;SDS011;61553;48.994;8.940;2023-10-19T04:02:09;25.73;;;18.58;;
32321;SDS011;61553;48.994;8.940;2023-10-19T04:04:38;28.33;;;18.70;;
32321;SDS011;61553;48.994;8.940;2023-10-19T04:07:13;23.42;;;17.27;;
32321;SDS011;61553;48.994;8.940;2023-10-19T04:09:50;28.83;;;20.13;;
32321;SDS011;61553;48.994;8.940;2023-10-19T04:12:35;23.45;;;17.10;;
32321;SDS011;61553;48.994;8.940;2023-10-19T04:15:05;26.85;;;16.92;;
32321;SDS011;61553;48.994;8.940;2023-10-19T04:17:40;25.88;;;18.05;;
32321;SDS011;61553;48.994;8.940;2023-10-19T04:20:13;30.65;;;18.08;;
32321;SDS011;61553;48.994;8.940;2023-10-19T04:22:43;33.33;;;22.90;;
32321;SDS011;61553;48.994;8.940;2023-10-19T04:25:13;41.47;;;27.30;;
32321;SDS011;61553;48.994;8.940;2023-10-19T04:27:41;33.72;;;22.10;;
32321;SDS011;61553;48.994;8.940;2023-10-19T04:30:11;24.48;;;17.35;;
32321;SDS011;61553;48.994;8.940;2023-10-19T04:32:47;25.83;;;16.85;;
32321;SDS011;61553;48.994;8.940;2023-10-19T04:35:17;24.25;;;16.58;;
32321;SDS011;61553;48.994;8.940;2023-10-19T04:40:15;20.13;;;14.10;;
32321;SDS011;61553;48.994;8.940;2023-10-19T04:42:41;21.05;;;14.65;;
32321;SDS011;61553;48.994;8.940;2023-10-19T04:45:07;23.58;;;16.17;;
32321;SDS011;61553;48.994;8.940;2023-10-19T04:47:34;26.23;;;17.67;;
32321;SDS011;61553;48.994;8.940;2023-10-19T04:50:04;26.50;;;18.38;;
32321;SDS011;61553;48.994;8.940;2023-10-19T04:52:30;28.40;;;18.92;;
32321;SDS011;61553;48.994;8.940;2023-10-19T04:54:57;30.95;;;21.80;;
32321;SDS011;61553;48.994;8.940;2023-10-19T04:57:23;28.63;;;17.88;;
32321;SDS011;61553;48.994;8.940;2023-10-19T04:59:49;28.27;;;18.02;;
32321;SDS011;61553;48.994;8.940;2023-10-19T05:02:15;31.08;;;20.15;;
32321;SDS011;61553;48.994;8.940;2023-10-19T05:04:41;35.08;;;22.77;;
32321;SDS011;61553;48.994;8.940;2023-10-19T05:07:08;30.02;;;20.42;;
32321;SDS011;61553;48.994;8.940;2023-10-19T05:09:37;34.08;;;22.73;;
32321;SDS011;61553;48.994;8.940;2023-10-19T05:12:05;34.30;;;21.80;;
32321;SDS011;61553;48.994;8.940;2023-10-19T05:14:35;35.05;;;24.05;;
32321;SDS011;61553;48.994;8.940;2023-10-19T05:17:01;27.45;;;19.70;;
32321;SDS011;61553;48.994;8.940;2023-10-19T05:19:29;30.92;;;20.75;;
32321;SDS011;61553;48.994;8.940;2023-10-19T05:21:56;35.42;;;20.63;;
32321;SDS011;61553;48.994;8.940;2023-10-19T05:24:22;25.30;;;17.67;;
32321;SDS011;61553;48.994;8.940;2023-10-19T05:26:48;28.77;;;18.60;;
32321;SDS011;61553;48.994;8.940;2023-10-19T05:29:14;28.88;;;19.63;;
32321;SDS011;61553;48.994;8.940;2023-10-19T05:31:40;34.08;;;21.40;;
32321;SDS011;61553;48.994;8.940;2023-10-19T05:34:06;30.90;;;22.25;;
32321;SDS011;61553;48.994;8.940;2023-10-19T05:36:33;30.38;;;20.95;;
32321;SDS011;61553;48.994;8.940;2023-10-19T05:38:59;30.48;;;19.42;;
32321;SDS011;61553;48.994;8.940;2023-10-19T05:41:24;29.02;;;18.17;;
32321;SDS011;61553;48.994;8.940;2023-10-19T05:43:51;28.75;;;19.75;;
32321;SDS011;61553;48.994;8.940;2023-10-19T05:46:18;29.58;;;20.00;;
32321;SDS011;61553;48.994;8.940;2023-10-19T05:48:47;24.08;;;16.58;;
32321;SDS011;61553;48.994;8.940;2023-10-19T05:51:14;29.75;;;19.05;;
32321;SDS011;61553;48.994;8.940;2023-10-19T05:53:40;31.75;;;22.55;;
32321;SDS011;61553;48.994;8.940;2023-10-19T05:56:06;30.80;;;21.02;;
32321;SDS011;61553;48.994;8.940;2023-10-19T05:58:32;29.20;;;21.00;;
32321;SDS011;61553;48.994;8.940;2023-10-19T06:00:58;28.13;;;18.65;;
32321;SDS011;61553;48.994;8.940;2023-10-19T06:03:24;41.35;;;27.25;;
32321;SDS011;61553;48.994;8.940;2023-10-19T06:05:50;36.58;;;27.20;;
32321;SDS011;61553;48.994;8.940;2023-10-19T06:08:15;38.42;;;25.50;;
32321;SDS011;61553;48.994;8.940;2023-10-19T06:10:41;41.97;;;24.95;;
32321;SDS011;61553;48.994;8.940;2023-10-19T06:13:07;33.20;;;23.17;;
32321;SDS011;61553;48.994;8.940;2023-10-19T06:15:35;35.47;;;23.42;;
32321;SDS011;61553;48.994;8.940;2023-10-19T06:18:00;39.80;;;24.38;;
32321;SDS011;61553;48.994;8.940;2023-10-19T06:20:26;32.30;;;22.33;;
32321;SDS011;61553;48.994;8.940;2023-10-19T06:22:55;31.83;;;22.38;;
32321;SDS011;61553;48.994;8.940;2023-10-19T06:25:26;41.08;;;25.85;;
32321;SDS011;61553;48.994;8.940;2023-10-19T06:27:52;40.47;;;25.17;;
32321;SDS011;61553;48.994;8.940;2023-10-19T06:30:18;37.58;;;24.75;;
32321;SDS011;61553;48.994;8.940;2023-10-19T06:32:49;29.35;;;20.85;;
32321;SDS011;61553;48.994;8.940;2023-10-19T06:35:18;34.25;;;22.42;;
32321;SDS011;61553;48.994;8.940;2023-10-19T06:37:44;34.97;;;24.70;;
32321;SDS011;61553;48.994;8.940;2023-10-19T06:40:10;35.50;;;23.02;;
32321;SDS011;61553;48.994;8.940;2023-10-19T06:42:38;35.63;;;23.50;;
32321;SDS011;61553;48.994;8.940;2023-10-19T06:45:04;27.08;;;18.08;;
32321;SDS011;61553;48.994;8.940;2023-10-19T06:47:30;39.95;;;22.90;;
32321;SDS011;61553;48.994;8.940;2023-10-19T06:49:56;40.03;;;23.80;;
32321;SDS011;61553;48.994;8.940;2023-10-19T06:52:22;42.97;;;25.67;;
32321;SDS011;61553;48.994;8.940;2023-10-19T06:54:47;41.08;;;26.42;;
32321;SDS011;61553;48.994;8.940;2023-10-19T06:57:13;35.05;;;23.13;;
32321;SDS011;61553;48.994;8.940;2023-10-19T06:59:39;35.67;;;23.40;;
32321;SDS011;61553;48.994;8.940;2023-10-19T07:02:05;31.38;;;20.98;;
32321;SDS011;61553;48.994;8.940;2023-10-19T07:04:33;29.55;;;20.63;;
32321;SDS011;61553;48.994;8.940;2023-10-19T07:06:58;34.15;;;22.23;;
32321;SDS011;61553;48.994;8.940;2023-10-19T07:09:25;24.65;;;18.27;;
32321;SDS011;61553;48.994;8.940;2023-10-19T07:11:51;30.63;;;21.15;;
32321;SDS011;61553;48.994;8.940;2023-10-19T07:14:19;29.25;;;20.05;;
32321;SDS011;61553;48.994;8.940;2023-10-19T07:16:47;29.80;;;18.73;;
32321;SDS011;61553;48.994;8.940;2023-10-19T07:19:14;22.40;;;15.18;;
32321;SDS011;61553;48.994;8.940;2023-10-19T07:21:40;21.10;;;15.23;;
32321;SDS011;61553;48.994;8.940;2023-10-19T07:24:08;22.10;;;16.27;;
32321;SDS011;61553;48.994;8.940;2023-10-19T07:26:36;21.35;;;14.82;;
32321;SDS011;61553;48.994;8.940;2023-10-19T07:29:16;23.65;;;16.17;;
32321;SDS011;61553;48.994;8.940;2023-10-19T07:31:42;20.73;;;15.07;;
32321;SDS011;61553;48.994;8.940;2023-10-19T07:34:07;20.25;;;15.40;;
32321;SDS011;61553;48.994;8.940;2023-10-19T07:36:37;21.17;;;14.65;;
32321;SDS011;61553;48.994;8.940;2023-10-19T07:39:03;19.23;;;14.20;;
32321;SDS011;61553;48.994;8.940;2023-10-19T07:41:29;19.65;;;13.75;;
32321;SDS011;61553;48.994;8.940;2023-10-19T07:44:01;19.37;;;13.63;;
32321;SDS011;61553;48.994;8.940;2023-10-19T07:46:27;21.40;;;13.35;;
32321;SDS011;61553;48.994;8.940;2023-10-19T07:48:54;18.20;;;11.93;;
32321;SDS011;61553;48.994;8.940;2023-10-19T07:51:20;22.23;;;13.43;;
32321;SDS011;61553;48.994;8.940;2023-10-19T07:53:45;16.02;;;12.23;;
32321;SDS011;61553;48.994;8.940;2023-10-19T07:56:11;16.20;;;12.30;;
32321;SDS011;61553;48.994;8.940;2023-10-19T07:58:36;16.42;;;11.35;;
32321;SDS011;61553;48.994;8.940;2023-10-19T08:01:02;16.83;;;12.13;;
32321;SDS011;61553;48.994;8.940;2023-10-19T08:03:28;14.55;;;10.90;;
32321;SDS011;61553;48.994;8.940;2023-10-19T08:05:53;12.60;;;9.50;;
32321;SDS011;61553;48.994;8.940;2023-10-19T08:08:19;11.93;;;8.23;;
32321;SDS011;61553;48.994;8.940;2023-10-19T08:10:45;13.65;;;8.20;;
32321;SDS011;61553;48.994;8.940;2023-10-19T08:13:10;11.40;;;6.93;;
32321;SDS011;61553;48.994;8.940;2023-10-19T08:15:37;11.68;;;5.78;;
32321;SDS011;61553;48.994;8.940;2023-10-19T08:18:03;11.73;;;6.03;;
32321;SDS011;61553;48.994;8.940;2023-10-19T08:20:30;9.27;;;4.95;;
32321;SDS011;61553;48.994;8.940;2023-10-19T08:22:57;7.07;;;4.65;;
32321;SDS011;61553;48.994;8.940;2023-10-19T08:25:23;8.63;;;4.68;;
32321;SDS011;61553;48.994;8.940;2023-10-19T08:27:52;7.13;;;4.80;;
32321;SDS011;61553;48.994;8.940;2023-10-19T08:30:21;9.10;;;5.22;;
32321;SDS011;61553;48.994;8.940;2023-10-19T08:32:48;9.48;;;5.18;;
32321;SDS011;61553;48.994;8.940;2023-10-19T08:35:14;8.48;;;4.78;;
32321;SDS011;61553;48.994;8.940;2023-10-19T08:37:43;7.13;;;5.20;;
32321;SDS011;61553;48.994;8.940;2023-10-19T08:40:11;9.52;;;4.93;;
32321;SDS011;61553;48.994;8.940;2023-10-19T08:42:41;10.15;;;6.25;;
32321;SDS011;61553;48.994;8.940;2023-10-19T08:45:08;9.05;;;5.53;;
32321;SDS011;61553;48.994;8.940;2023-10-19T08:47:37;10.07;;;4.82;;
32321;SDS011;61553;48.994;8.940;2023-10-19T08:50:08;7.57;;;4.55;;
32321;SDS011;61553;48.994;8.940;2023-10-19T08:52:35;6.40;;;3.40;;
32321;SDS011;61553;48.994;8.940;2023-10-19T08:55:02;6.35;;;3.80;;
32321;SDS011;61553;48.994;8.940;2023-10-19T08:57:29;7.13;;;4.13;;
32321;SDS011;61553;48.994;8.940;2023-10-19T08:59:55;7.22;;;3.97;;
32321;SDS011;61553;48.994;8.940;2023-10-19T09:02:23;7.60;;;4.20;;
32321;SDS011;61553;48.994;8.940;2023-10-19T09:04:49;9.60;;;3.97;;
32321;SDS011;61553;48.994;8.940;2023-10-19T09:07:16;6.32;;;3.92;;
32321;SDS011;61553;48.994;8.940;2023-10-19T09:09:41;7.13;;;4.05;;
32321;SDS011;61553;48.994;8.940;2023-10-19T09:12:07;6.40;;;3.83;;
32321;SDS011;61553;48.994;8.940;2023-10-19T09:14:34;5.97;;;3.53;;
32321;SDS011;61553;48.994;8.940;2023-10-19T09:17:06;6.55;;;4.03;;
32321;SDS011;61553;48.994;8.940;2023-10-19T09:22:13;9.07;;;4.38;;
32321;SDS011;61553;48.994;8.940;2023-10-19T09:24:51;9.38;;;4.10;;
32321;SDS011;61553;48.994;8.940;2023-10-19T09:27:20;7.88;;;4.18;;
32321;SDS011;61553;48.994;8.940;2023-10-19T09:29:48;9.13;;;4.20;;
32321;SDS011;61553;48.994;8.940;2023-10-19T09:32:17;7.05;;;4.13;;
32321;SDS011;61553;48.994;8.940;2023-10-19T09:34:44;7.38;;;3.92;;
32321;SDS011;61553;48.994;8.940;2023-10-19T09:37:12;9.18;;;4.60;;
32321;SDS011;61553;48.994;8.940;2023-10-19T09:39:38;6.63;;;3.95;;
32321;SDS011;61553;48.994;8.940;2023-10-19T09:42:10;7.72;;;4.25;;
32321;SDS011;61553;48.994;8.940;2023-10-19T09:44:43;10.15;;;4.50;;
32321;SDS011;61553;48.994;8.940;2023-10-19T09:47:15;8.80;;;4.35;;
32321;SDS011;61553;48.994;8.940;2023-10-19T09:49:49;8.18;;;4.43;;
32321;SDS011;61553;48.994;8.940;2023-10-19T09:52:15;8.07;;;4.20;;
32321;SDS011;61553;48.994;8.940;2023-10-19T09:57:13;10.27;;;5.22;;
32321;SDS011;61553;48.994;8.940;2023-10-19T09:59:44;12.35;;;5.85;;
32321;SDS011;61553;48.994;8.940;2023-10-19T10:02:13;8.50;;;5.32;;
32321;SDS011;61553;48.994;8.940;2023-10-19T10:04:40;11.98;;;5.63;;
32321;SDS011;61553;48.994;8.940;2023-10-19T10:07:07;7.85;;;5.03;;
32321;SDS011;61553;48.994;8.940;2023-10-19T10:09:38;9.68;;;4.95;;
32321;SDS011;61553;48.994;8.940;2023-10-19T10:12:24;10.43;;;5.53;;
32321;SDS011;61553;48.994;8.940;2023-10-19T10:15:13;8.07;;;5.15;;
32321;SDS011;61553;48.994;8.940;2023-10-19T10:17:38;9.73;;;6.00;;
32321;SDS011;61553;48.994;8.940;2023-10-19T10:22:39;10.75;;;5.53;;
32321;SDS011;61553;48.994;8.940;2023-10-19T10:25:06;9.23;;;6.03;;
32321;SDS011;61553;48.994;8.940;2023-10-19T10:27:35;14.68;;;6.18;;
32321;SDS011;61553;48.994;8.940;2023-10-19T10:30:02;10.00;;;6.20;;
32321;SDS011;61553;48.994;8.940;2023-10-19T10:32:47;10.63;;;6.50;;
32321;SDS011;61553;48.994;8.940;2023-10-19T10:38:05;10.70;;;6.72;;
32321;SDS011;61553;48.994;8.940;2023-10-19T10:40:42;11.18;;;6.05;;
32321;SDS011;61553;48.994;8.940;2023-10-19T10:43:08;12.00;;;6.43;;
32321;SDS011;61553;48.994;8.940;2023-10-19T10:45:35;10.20;;;6.22;;
32321;SDS011;61553;48.994;8.940;2023-10-19T10:48:01;11.85;;;6.10;;
32321;SDS011;61553;48.994;8.940;2023-10-19T10:50:27;7.97;;;5.80;;
32321;SDS011;61553;48.994;8.940;2023-10-19T10:52:56;11.95;;;5.55;;
32321;SDS011;61553;48.994;8.940;2023-10-19T10:55:24;11.38;;;6.82;;
32321;SDS011;61553;48.994;8.940;2023-10-19T10:57:50;11.98;;;6.50;;
32321;SDS011;61553;48.994;8.940;2023-10-19T11:00:16;9.02;;;6.10;;
32321;SDS011;61553;48.994;8.940;2023-10-19T11:02:58;11.00;;;6.32;;
32321;SDS011;61553;48.994;8.940;2023-10-19T11:05:35;11.27;;;5.82;;
32321;SDS011;61553;48.994;8.940;2023-10-19T11:10:39;12.60;;;6.55;;
32321;SDS011;61553;48.994;8.940;2023-10-19T11:13:08;9.48;;;5.22;;
32321;SDS011;61553;48.994;8.940;2023-10-19T11:15:36;9.60;;;5.43;;
32321;SDS011;61553;48.994;8.940;2023-10-19T11:18:03;9.35;;;5.47;;
32321;SDS011;61553;48.994;8.940;2023-10-19T11:20:29;9.23;;;5.75;;
32321;SDS011;61553;48.994;8.940;2023-10-19T11:22:56;8.57;;;5.45;;
32321;SDS011;61553;48.994;8.940;2023-10-19T11:25:26;10.48;;;5.95;;
32321;SDS011;61553;48.994;8.940;2023-10-19T11:27:56;12.55;;;6.07;;
32321;SDS011;61553;48.994;8.940;2023-10-19T11:30:26;12.57;;;8.35;;
32321;SDS011;61553;48.994;8.940;2023-10-19T11:32:56;15.50;;;7.38;;
32321;SDS011;61553;48.994;8.940;2023-10-19T11:35:26;18.13;;;7.70;;
32321;SDS011;61553;48.994;8.940;2023-10-19T11:37:53;18.52;;;8.10;;
32321;SDS011;61553;48.994;8.940;2023-10-19T11:40:20;12.57;;;7.50;;
32321;SDS011;61553;48.994;8.940;2023-10-19T11:42:47;11.00;;;6.97;;
32321;SDS011;61553;48.994;8.940;2023-10-19T11:45:13;13.55;;;7.38;;
32321;SDS011;61553;48.994;8.940;2023-10-19T11:47:39;12.18;;;5.88;;
32321;SDS011;61553;48.994;8.940;2023-10-19T11:50:06;12.30;;;6.78;;
32321;SDS011;61553;48.994;8.940;2023-10-19T11:52:32;15.50;;;8.85;;
32321;SDS011;61553;48.994;8.940;2023-10-19T11:54:58;15.90;;;7.78;;
32321;SDS011;61553;48.994;8.940;2023-10-19T11:57:24;11.10;;;6.70;;
32321;SDS011;61553;48.994;8.940;2023-10-19T11:59:52;11.98;;;6.32;;
32321;SDS011;61553;48.994;8.940;2023-10-19T12:02:18;10.82;;;5.35;;
32321;SDS011;61553;48.994;8.940;2023-10-19T12:04:44;10.55;;;5.15;;
32321;SDS011;61553;48.994;8.940;2023-10-19T12:07:10;16.52;;;8.88;;
32321;SDS011;61553;48.994;8.940;2023-10-19T12:09:36;13.48;;;7.65;;
32321;SDS011;61553;48.994;8.940;2023-10-19T12:12:02;11.90;;;5.85;;
32321;SDS011;61553;48.994;8.940;2023-10-19T12:14:31;15.02;;;7.70;;
32321;SDS011;61553;48.994;8.940;2023-10-19T12:16:59;14.60;;;7.20;;
32321;SDS011;61553;48.994;8.940;2023-10-19T12:19:29;12.98;;;7.32;;
32321;SDS011;61553;48.994;8.940;2023-10-19T12:21:55;10.40;;;6.35;;
32321;SDS011;61553;48.994;8.940;2023-10-19T12:24:21;12.13;;;5.85;;
32321;SDS011;61553;48.994;8.940;2023-10-19T12:26:48;10.90;;;5.15;;
32321;SDS011;61553;48.994;8.940;2023-10-19T12:29:14;7.38;;;4.60;;
32321;SDS011;61553;48.994;8.940;2023-10-19T12:31:42;10.07;;;5.32;;
32321;SDS011;61553;48.994;8.940;2023-10-19T12:34:08;9.90;;;5.10;;
32321;SDS011;61553;48.994;8.940;2023-10-19T12:36:36;8.88;;;4.90;;
32321;SDS011;61553;48.994;8.940;2023-10-19T12:39:02;9.68;;;5.38;;
32321;SDS011;61553;48.994;8.940;2023-10-19T12:41:31;9.18;;;5.35;;
32321;SDS011;61553;48.994;8.940;2023-10-19T12:43:57;10.77;;;5.18;;
32321;SDS011;61553;48.994;8.940;2023-10-19T12:46:25;9.75;;;4.68;;
32321;SDS011;61553;48.994;8.940;2023-10-19T12:48:52;6.22;;;4.10;;
32321;SDS011;61553;48.994;8.940;2023-10-19T12:51:24;7.05;;;4.63;;
32321;SDS011;61553;48.994;8.940;2023-10-19T12:53:51;7.55;;;4.57;;
32321;SDS011;61553;48.994;8.940;2023-10-19T12:56:17;7.97;;;5.32;;
32321;SDS011;61553;48.994;8.940;2023-10-19T12:58:43;11.82;;;6.78;;
32321;SDS011;61553;48.994;8.940;2023-10-19T13:01:09;15.88;;;10.10;;
32321;SDS011;61553;48.994;8.940;2023-10-19T13:03:42;12.38;;;8.48;;
32321;SDS011;61553;48.994;8.940;2023-10-19T13:06:10;16.85;;;8.73;;
32321;SDS011;61553;48.994;8.940;2023-10-19T13:08:39;13.52;;;8.00;;
32321;SDS011;61553;48.994;8.940;2023-10-19T13:11:06;13.95;;;7.63;;
32321;SDS011;61553;48.994;8.940;2023-10-19T13:13:32;16.55;;;9.05;;
32321;SDS011;61553;48.994;8.940;2023-10-19T13:15:58;10.38;;;5.63;;
32321;SDS011;61553;48.994;8.940;2023-10-19T13:18:24;11.82;;;6.25;;
32321;SDS011;61553;48.994;8.940;2023-10-19T13:20:54;9.90;;;5.10;;
32321;SDS011;61553;48.994;8.940;2023-10-19T13:23:20;7.95;;;4.95;;
32321;SDS011;61553;48.994;8.940;2023-10-19T13:25:49;13.10;;;4.93;;
32321;SDS011;61553;48.994;8.940;2023-10-19T13:28:16;10.40;;;5.43;;
32321;SDS011;61553;48.994;8.940;2023-10-19T13:30:45;15.40;;;8.63;;
32321;SDS011;61553;48.994;8.940;2023-10-19T13:33:15;28.65;;;13.27;;
32321;SDS011;61553;48.994;8.940;2023-10-19T13:35:41;22.85;;;12.07;;
32321;SDS011;61553;48.994;8.940;2023-10-19T13:38:09;30.40;;;14.90;;
32321;SDS011;61553;48.994;8.940;2023-10-19T13:40:37;30.73;;;14.50;;
32321;SDS011;61553;48.994;8.940;2023-10-19T13:43:04;22.20;;;11.15;;
32321;SDS011;61553;48.994;8.940;2023-10-19T13:45:34;17.92;;;9.35;;
32321;SDS011;61553;48.994;8.940;2023-10-19T13:48:04;14.50;;;8.30;;
32321;SDS011;61553;48.994;8.940;2023-10-19T13:50:33;10.45;;;5.13;;
32321;SDS011;61553;48.994;8.940;2023-10-19T13:53:00;6.72;;;3.83;;
32321;SDS011;61553;48.994;8.940;2023-10-19T13:55:28;6.00;;;4.25;;
32321;SDS011;61553;48.994;8.940;2023-10-19T13:57:54;9.35;;;4.70;;
32321;SDS011;61553;48.994;8.940;2023-10-19T14:00:23;7.47;;;3.35;;
32321;SDS011;61553;48.994;8.940;2023-10-19T14:02:56;15.25;;;8.32;;
32321;SDS011;61553;48.994;8.940;2023-10-19T14:05:23;18.08;;;10.52;;
32321;SDS011;61553;48.994;8.940;2023-10-19T14:07:50;15.45;;;8.73;;
32321;SDS011;61553;48.994;8.940;2023-10-19T14:10:16;20.55;;;11.35;;
32321;SDS011;61553;48.994;8.940;2023-10-19T14:12:44;10.95;;;6.85;;
32321;SDS011;61553;48.994;8.940;2023-10-19T14:15:18;13.75;;;8.30;;
32321;SDS011;61553;48.994;8.940;2023-10-19T14:17:46;11.63;;;6.05;;
32321;SDS011;61553;48.994;8.940;2023-10-19T14:20:16;9.68;;;6.25;;
32321;SDS011;61553;48.994;8.940;2023-10-19T14:22:42;5.72;;;3.40;;
32321;SDS011;61553;48.994;8.940;2023-10-19T14:25:14;6.60;;;3.50;;
32321;SDS011;61553;48.994;8.940;2023-10-19T14:27:44;9.82;;;4.03;;
32321;SDS011;61553;48.994;8.940;2023-10-19T14:30:11;5.93;;;3.72;;
32321;SDS011;61553;48.994;8.940;2023-10-19T14:32:42;8.95;;;3.63;;
32321;SDS011;61553;48.994;8.940;2023-10-19T14:35:12;8.52;;;3.70;;
32321;SDS011;61553;48.994;8.940;2023-10-19T14:37:40;10.68;;;6.13;;
32321;SDS011;61553;48.994;8.940;2023-10-19T14:40:11;8.75;;;5.85;;
32321;SDS011;61553;48.994;8.940;2023-10-19T14:42:39;8.97;;;4.83;;
32321;SDS011;61553;48.994;8.940;2023-10-19T14:45:10;6.20;;;3.50;;
32321;SDS011;61553;48.994;8.940;2023-10-19T14:47:39;11.50;;;4.60;;
32321;SDS011;61553;48.994;8.940;2023-10-19T14:50:15;9.25;;;4.25;;
32321;SDS011;61553;48.994;8.940;2023-10-19T14:52:43;9.35;;;4.35;;
32321;SDS011;61553;48.994;8.940;2023-10-19T14:55:10;7.63;;;4.28;;
32321;SDS011;61553;48.994;8.940;2023-10-19T14:57:37;10.40;;;5.10;;